createdAt,value
2022-08-03T00:01:50.391Z,2.85
2022-08-03T00:04:17.287Z,2.67
2022-08-03T00:06:44.184Z,2.42
2022-08-03T00:09:11.198Z,2.78
2022-08-03T00:11:38.471Z,2.85
2022-08-03T00:14:06.418Z,2.80
2022-08-03T00:16:33.066Z,2.35
2022-08-03T00:19:00.776Z,2.20
2022-08-03T00:21:28.532Z,2.50
2022-08-03T00:23:56.133Z,2.38
2022-08-03T00:26:22.879Z,2.42
2022-08-03T00:28:50.145Z,3.08
2022-08-03T00:31:16.811Z,2.80
2022-08-03T00:33:59.221Z,2.88
2022-08-03T00:36:29.807Z,2.83
2022-08-03T00:38:56.424Z,2.75
2022-08-03T00:41:23.071Z,2.35
2022-08-03T00:43:49.451Z,2.70
2022-08-03T00:46:20.784Z,2.50
2022-08-03T00:48:51.972Z,2.58
2022-08-03T00:51:19.836Z,2.95
2022-08-03T00:53:46.282Z,2.72
2022-08-03T00:56:16.547Z,2.60
2022-08-03T00:58:46.918Z,2.65
2022-08-03T01:01:14.045Z,2.55
2022-08-03T01:03:41.128Z,2.80
2022-08-03T01:06:16.662Z,2.40
2022-08-03T01:09:27.592Z,2.50
2022-08-03T01:12:03.870Z,3.08
2022-08-03T01:14:36.010Z,2.67
2022-08-03T01:17:13.512Z,2.58
2022-08-03T01:19:50.165Z,2.95
2022-08-03T01:22:50.410Z,2.67
2022-08-03T01:25:32.841Z,3.20
2022-08-03T01:28:24.196Z,3.42
2022-08-03T01:30:54.647Z,2.95
2022-08-03T01:33:26.001Z,3.53
2022-08-03T01:36:00.461Z,2.97
2022-08-03T01:38:33.881Z,3.17
2022-08-03T01:41:10.974Z,2.90
2022-08-03T01:44:27.623Z,3.63
2022-08-03T01:46:28.500Z,3.55
2022-08-03T01:48:56.028Z,3.00
2022-08-03T01:51:22.837Z,3.42
2022-08-03T01:53:52.124Z,3.38
2022-08-03T01:56:22.068Z,3.35
2022-08-03T01:58:50.576Z,3.40
2022-08-03T02:01:18.770Z,3.40
2022-08-03T02:03:59.620Z,3.20
2022-08-03T02:06:59.601Z,3.40
2022-08-03T02:09:19.844Z,3.55
2022-08-03T02:11:47.256Z,3.58
2022-08-03T02:14:14.692Z,3.40
2022-08-03T02:16:44.555Z,3.33
2022-08-03T02:19:12.005Z,3.72
2022-08-03T02:21:57.173Z,3.33
2022-08-03T02:24:26.088Z,3.75
2022-08-03T02:26:55.687Z,3.25
2022-08-03T02:29:39.964Z,3.50
2022-08-03T02:32:10.435Z,3.65
2022-08-03T02:34:37.998Z,3.38
2022-08-03T02:37:05.951Z,3.13
2022-08-03T02:39:35.373Z,3.67
2022-08-03T02:42:05.448Z,3.08
2022-08-03T02:44:34.842Z,3.35
2022-08-03T02:47:05.251Z,3.90
2022-08-03T02:49:42.153Z,3.30
2022-08-03T02:52:17.987Z,3.28
2022-08-03T02:54:48.616Z,3.25
2022-08-03T02:57:15.150Z,3.45
2022-08-03T02:59:43.704Z,3.50
2022-08-03T03:02:10.995Z,3.58
2022-08-03T03:04:38.279Z,4.15
2022-08-03T03:07:15.707Z,3.80
2022-08-03T03:09:43.375Z,3.40
2022-08-03T03:12:11.158Z,3.50
2022-08-03T03:14:38.245Z,3.70
2022-08-03T03:17:06.892Z,3.55
2022-08-03T03:19:34.355Z,3.60
2022-08-03T03:22:02.402Z,3.33
2022-08-03T03:24:29.976Z,3.38
2022-08-03T03:27:00.142Z,3.30
2022-08-03T03:29:27.430Z,3.65
2022-08-03T03:31:54.107Z,4.25
2022-08-03T03:34:20.968Z,3.60
2022-08-03T03:36:47.878Z,3.97
2022-08-03T03:39:15.915Z,3.50
2022-08-03T03:41:43.461Z,3.60
2022-08-03T03:44:10.425Z,3.50
2022-08-03T03:46:39.150Z,3.13
2022-08-03T03:49:07.224Z,3.50
2022-08-03T03:51:33.946Z,3.72
2022-08-03T03:54:02.538Z,3.60
2022-08-03T03:56:29.324Z,4.15
2022-08-03T03:58:56.362Z,3.75
2022-08-03T04:01:23.082Z,3.60
2022-08-03T04:03:49.554Z,3.25
2022-08-03T04:06:35.277Z,3.63
2022-08-03T04:09:20.018Z,3.70
2022-08-03T04:11:58.425Z,3.35
2022-08-03T04:14:28.436Z,4.40
2022-08-03T04:17:02.148Z,3.60
2022-08-03T04:19:34.079Z,3.83
2022-08-03T04:22:04.328Z,3.53
2022-08-03T04:24:36.931Z,3.90
2022-08-03T04:27:06.316Z,4.07
2022-08-03T04:29:35.859Z,3.30
2022-08-03T04:32:07.298Z,3.25
2022-08-03T04:34:33.803Z,4.03
2022-08-03T04:37:02.978Z,3.33
2022-08-03T04:39:32.548Z,3.72
2022-08-03T04:42:08.297Z,3.78
2022-08-03T04:44:41.024Z,3.42
2022-08-03T04:47:07.968Z,3.65
2022-08-03T04:49:36.644Z,3.63
2022-08-03T04:52:03.837Z,3.58
2022-08-03T04:54:30.743Z,3.30
2022-08-03T04:56:57.092Z,3.10
2022-08-03T04:59:23.492Z,3.67
2022-08-03T05:01:49.922Z,3.38
2022-08-03T05:04:16.445Z,3.38
2022-08-03T05:06:48.212Z,3.35
2022-08-03T05:09:45.981Z,3.28
2022-08-03T05:12:07.788Z,2.90
2022-08-03T05:14:36.889Z,2.80
2022-08-03T05:17:04.462Z,2.80
2022-08-03T05:19:30.817Z,3.03
2022-08-03T05:21:57.254Z,2.40
2022-08-03T05:24:23.750Z,2.75
2022-08-03T05:26:50.303Z,2.33
2022-08-03T05:29:16.745Z,2.38
2022-08-03T05:31:43.176Z,2.50
2022-08-03T05:34:09.544Z,2.67
2022-08-03T05:36:36.242Z,2.38
2022-08-03T05:39:03.077Z,2.40
2022-08-03T05:41:36.959Z,2.60
2022-08-03T05:44:04.442Z,2.53
2022-08-03T05:46:30.838Z,2.63
2022-08-03T05:48:57.300Z,2.42
2022-08-03T05:51:23.825Z,2.45
2022-08-03T05:53:50.281Z,2.25
2022-08-03T05:56:17.072Z,2.08
2022-08-03T05:58:49.334Z,2.65
2022-08-03T06:01:16.844Z,2.30
2022-08-03T06:03:43.593Z,2.28
2022-08-03T06:06:11.817Z,2.30
2022-08-03T06:08:42.452Z,2.17
2022-08-03T06:11:10.135Z,2.10
2022-08-03T06:13:36.982Z,1.85
2022-08-03T06:16:03.801Z,1.92
2022-08-03T06:18:30.247Z,1.83
2022-08-03T06:20:56.640Z,1.90
2022-08-03T06:23:52.564Z,1.83
2022-08-03T06:26:09.596Z,2.00
2022-08-03T06:28:52.356Z,2.13
2022-08-03T06:31:32.708Z,2.22
2022-08-03T06:34:33.360Z,2.10
2022-08-03T06:36:51.144Z,2.00
2022-08-03T06:39:19.542Z,2.10
2022-08-03T06:41:45.942Z,2.63
2022-08-03T06:44:13.058Z,2.22
2022-08-03T06:46:39.715Z,2.30
2022-08-03T06:49:07.109Z,2.05
2022-08-03T06:52:05.784Z,2.35
2022-08-03T06:54:22.175Z,2.33
2022-08-03T06:56:51.585Z,2.40
2022-08-03T07:00:09.498Z,2.30
2022-08-03T07:02:04.923Z,2.30
2022-08-03T07:04:31.298Z,2.25
2022-08-03T07:06:58.426Z,1.80
2022-08-03T07:09:26.341Z,2.22
2022-08-03T07:11:55.384Z,1.88
2022-08-03T07:14:24.154Z,1.90
2022-08-03T07:16:50.582Z,2.30
2022-08-03T07:19:17.195Z,2.08
2022-08-03T07:21:44.752Z,1.98
2022-08-03T07:24:11.302Z,2.60
2022-08-03T07:26:37.724Z,2.42
2022-08-03T07:29:04.118Z,2.35
2022-08-03T07:31:41.999Z,2.30
2022-08-03T07:34:08.432Z,2.53
2022-08-03T07:36:34.861Z,2.35
2022-08-03T07:39:01.337Z,2.08
2022-08-03T07:41:42.613Z,2.17
2022-08-03T07:44:10.090Z,2.00
2022-08-03T07:46:36.543Z,2.22
2022-08-03T07:49:03.221Z,1.83
2022-08-03T07:51:29.597Z,2.40
2022-08-03T07:53:57.563Z,2.20
2022-08-03T07:56:28.122Z,2.03
2022-08-03T07:58:57.759Z,2.13
2022-08-03T08:01:26.755Z,1.92
2022-08-03T08:03:53.807Z,2.00
2022-08-03T08:06:21.133Z,2.03
2022-08-03T08:08:47.609Z,1.88
2022-08-03T08:11:14.455Z,1.95
2022-08-03T08:13:40.871Z,2.30
2022-08-03T08:16:07.340Z,2.03
2022-08-03T08:18:34.386Z,1.70
2022-08-03T08:21:03.060Z,2.20
2022-08-03T08:23:37.871Z,1.90
2022-08-03T08:26:09.383Z,2.20
2022-08-03T08:28:35.892Z,1.95
2022-08-03T08:31:02.540Z,2.40
2022-08-03T08:33:42.051Z,2.00
2022-08-03T08:36:15.871Z,2.15
2022-08-03T08:38:44.812Z,1.83
2022-08-03T08:41:12.632Z,1.98
2022-08-03T08:43:39.037Z,2.03
2022-08-03T08:46:07.939Z,2.08
2022-08-03T08:48:36.240Z,1.83
2022-08-03T08:51:03.391Z,2.00
2022-08-03T08:53:32.671Z,1.75
2022-08-03T08:56:02.058Z,1.90
2022-08-03T08:58:30.978Z,1.92
2022-08-03T09:00:57.591Z,1.80
2022-08-03T09:03:30.013Z,1.95
2022-08-03T09:05:59.512Z,1.80
2022-08-03T09:08:26.008Z,1.65
2022-08-03T09:10:52.418Z,1.90
2022-08-03T09:13:19.380Z,1.70
2022-08-03T09:16:00.538Z,1.70
2022-08-03T09:18:32.200Z,1.58
2022-08-03T09:21:33.652Z,1.60
2022-08-03T09:24:05.143Z,1.70
2022-08-03T09:26:35.326Z,1.90
2022-08-03T09:29:13.148Z,2.10
2022-08-03T09:31:44.307Z,1.65
2022-08-03T09:34:15.620Z,1.77
2022-08-03T09:36:49.544Z,1.63
2022-08-03T09:39:18.646Z,2.35
2022-08-03T09:41:48.855Z,2.00
2022-08-03T09:44:24.171Z,2.35
2022-08-03T09:46:53.695Z,1.90
2022-08-03T09:49:20.188Z,2.15
2022-08-03T09:52:31.585Z,2.00
2022-08-03T09:54:34.081Z,1.88
2022-08-03T09:57:00.691Z,1.92
2022-08-03T09:59:32.115Z,1.75
2022-08-03T10:02:00.880Z,1.70
2022-08-03T10:04:27.749Z,1.98
2022-08-03T10:07:10.724Z,1.98
2022-08-03T10:09:37.693Z,1.80
2022-08-03T10:12:09.348Z,1.83
2022-08-03T10:14:41.678Z,2.20
2022-08-03T10:17:09.631Z,2.08
2022-08-03T10:19:36.411Z,2.03
2022-08-03T10:22:07.787Z,2.22
2022-08-03T10:24:36.309Z,1.63
2022-08-03T10:27:05.718Z,2.00
2022-08-03T10:29:37.515Z,1.80
2022-08-03T10:32:09.494Z,1.92
2022-08-03T10:34:44.260Z,2.00
2022-08-03T10:37:13.390Z,1.90
2022-08-03T10:39:53.155Z,1.85
2022-08-03T10:42:31.193Z,1.58
2022-08-03T10:45:09.699Z,1.77
2022-08-03T10:47:36.775Z,2.10
2022-08-03T10:50:04.384Z,1.88
2022-08-03T10:52:32.496Z,1.65
2022-08-03T10:55:18.931Z,1.92
2022-08-03T10:57:58.315Z,1.80
2022-08-03T11:00:27.189Z,2.00
2022-08-03T11:03:07.191Z,1.83
2022-08-03T11:05:54.314Z,1.88
2022-08-03T11:08:22.012Z,2.05
2022-08-03T11:10:49.676Z,2.13
2022-08-03T11:13:18.824Z,1.98
2022-08-03T11:15:47.251Z,2.08
2022-08-03T11:18:14.674Z,2.17
2022-08-03T11:20:54.463Z,2.05
2022-08-03T11:24:03.622Z,2.00
2022-08-03T11:26:32.755Z,1.92
2022-08-03T11:29:31.182Z,1.95
2022-08-03T11:31:57.749Z,2.13
2022-08-03T11:34:24.548Z,1.83
2022-08-03T11:37:22.003Z,2.00
2022-08-03T11:39:52.871Z,1.70
2022-08-03T11:42:39.639Z,1.85
2022-08-03T11:45:08.507Z,2.20
2022-08-03T11:47:50.826Z,2.10
2022-08-03T11:50:19.115Z,1.95
2022-08-03T11:52:45.703Z,1.95
2022-08-03T11:55:13.557Z,1.77
2022-08-03T11:59:00.955Z,1.75
2022-08-03T12:00:31.713Z,1.60
2022-08-03T12:03:03.577Z,1.58
2022-08-03T12:05:51.281Z,2.15
2022-08-03T12:08:39.686Z,1.83
2022-08-03T12:11:08.685Z,1.83
2022-08-03T12:14:35.822Z,1.70
2022-08-03T12:16:37.571Z,1.67
2022-08-03T12:19:06.653Z,1.70
2022-08-03T12:21:34.034Z,2.05
2022-08-03T12:24:03.273Z,1.58
2022-08-03T12:26:42.172Z,1.73
2022-08-03T12:29:08.597Z,1.63
2022-08-03T12:31:35.664Z,1.83
2022-08-03T12:34:05.077Z,1.70
2022-08-03T12:36:33.710Z,1.83
2022-08-03T12:39:04.837Z,1.60
2022-08-03T12:41:38.471Z,1.52
2022-08-03T12:44:06.843Z,1.20
2022-08-03T12:46:41.627Z,1.45
2022-08-03T12:49:15.172Z,1.50
2022-08-03T12:51:44.580Z,3.67
2022-08-03T12:54:17.762Z,1.55
2022-08-03T12:57:07.184Z,1.48
2022-08-03T12:59:40.640Z,1.70
2022-08-03T13:02:23.629Z,1.40
2022-08-03T13:04:51.975Z,1.20
2022-08-03T13:07:19.931Z,1.50
2022-08-03T13:09:55.082Z,1.80
2022-08-03T13:12:23.768Z,1.13
2022-08-03T13:14:52.531Z,1.35
2022-08-03T13:17:20.092Z,1.75
2022-08-03T13:19:47.654Z,1.45
2022-08-03T13:22:25.477Z,0.93
2022-08-03T13:24:57.541Z,1.20
2022-08-03T13:28:04.796Z,1.08
2022-08-03T13:30:11.775Z,1.33
2022-08-03T13:32:38.979Z,1.42
2022-08-03T13:35:06.719Z,1.30
2022-08-03T13:37:33.668Z,1.52
2022-08-03T13:40:03.064Z,1.45
2022-08-03T13:42:32.495Z,1.40
2022-08-03T13:44:59.868Z,1.38
2022-08-03T13:47:26.992Z,1.67
2022-08-03T13:50:00.156Z,1.70
2022-08-03T13:52:33.668Z,1.58
2022-08-03T13:55:01.374Z,1.60
2022-08-03T13:58:04.793Z,1.38
2022-08-03T14:00:27.296Z,1.35
2022-08-03T14:03:13.726Z,1.30
2022-08-03T14:05:42.480Z,1.67
2022-08-03T14:08:09.629Z,1.50
2022-08-03T14:10:38.206Z,1.77
2022-08-03T14:13:05.737Z,1.75
2022-08-03T14:15:36.436Z,1.60
2022-08-03T14:18:06.011Z,1.50
2022-08-03T14:20:37.703Z,1.30
2022-08-03T14:23:06.679Z,1.45
2022-08-03T14:25:50.099Z,1.40
2022-08-03T14:28:24.047Z,1.48
2022-08-03T14:30:55.701Z,1.60
2022-08-03T14:33:22.491Z,1.77
2022-08-03T14:35:49.744Z,1.67
2022-08-03T14:38:17.238Z,1.30
2022-08-03T14:40:44.027Z,1.45
2022-08-03T14:43:13.035Z,1.60
2022-08-03T14:45:40.068Z,1.35
2022-08-03T14:50:29.294Z,1.10
2022-08-03T14:50:56.705Z,1.20
2022-08-03T14:53:23.517Z,1.58
2022-08-03T14:55:51.934Z,1.50
2022-08-03T14:58:22.950Z,1.30
2022-08-03T15:00:51.014Z,1.30
2022-08-03T15:05:53.877Z,1.42
2022-08-03T15:08:21.359Z,1.45
2022-08-03T15:10:49.163Z,1.13
2022-08-03T15:13:19.784Z,1.30
2022-08-03T15:15:46.662Z,1.30
2022-08-03T15:18:13.026Z,1.30
2022-08-03T15:20:44.958Z,1.38
2022-08-03T15:23:16.360Z,1.73
2022-08-03T15:26:28.841Z,1.50
2022-08-03T15:28:31.463Z,1.50
2022-08-03T15:30:58.015Z,1.30
2022-08-03T15:33:24.364Z,1.95
2022-08-03T15:35:50.760Z,1.20
2022-08-03T15:38:17.628Z,1.77
2022-08-03T15:40:44.890Z,1.35
2022-08-03T15:43:11.457Z,1.40
2022-08-03T15:45:37.964Z,1.33
2022-08-03T15:48:05.565Z,1.20
2022-08-03T15:50:31.989Z,1.40
2022-08-03T15:52:58.371Z,1.30
2022-08-03T15:55:24.849Z,1.55
2022-08-03T15:59:04.394Z,1.27
2022-08-03T16:00:37.903Z,1.55
2022-08-03T16:03:04.584Z,1.42
2022-08-03T16:05:31.272Z,1.42
2022-08-03T16:08:03.642Z,1.63
2022-08-03T16:10:31.621Z,1.42
2022-08-03T16:13:00.950Z,1.50
2022-08-03T16:15:27.732Z,1.50
2022-08-03T16:17:54.438Z,1.52
2022-08-03T16:20:31.587Z,1.40
2022-08-03T16:25:37.955Z,1.40
2022-08-03T16:28:07.953Z,1.52
2022-08-03T16:30:39.909Z,1.30
2022-08-03T16:33:06.294Z,1.42
2022-08-03T16:35:32.777Z,1.15
2022-08-03T16:37:59.192Z,1.27
2022-08-03T16:40:26.430Z,1.10
2022-08-03T16:42:52.982Z,0.95
2022-08-03T16:45:19.474Z,1.33
2022-08-03T16:47:45.893Z,1.00
2022-08-03T16:50:17.510Z,1.17
2022-08-03T16:52:47.203Z,1.30
2022-08-03T16:55:15.623Z,1.25
2022-08-03T16:57:59.408Z,1.00
2022-08-03T17:00:34.162Z,1.10
2022-08-03T17:03:16.368Z,1.27
2022-08-03T17:05:49.552Z,1.40
2022-08-03T17:08:26.064Z,1.20
2022-08-03T17:10:53.663Z,1.17
2022-08-03T17:13:22.551Z,1.20
2022-08-03T17:16:01.964Z,1.20
2022-08-03T17:18:39.006Z,1.40
2022-08-03T17:21:09.403Z,0.90
2022-08-03T17:24:02.409Z,1.13
2022-08-03T17:26:31.052Z,1.30
2022-08-03T17:29:02.463Z,1.20
2022-08-03T17:31:48.881Z,1.33
2022-08-03T17:34:17.660Z,1.38
2022-08-03T17:39:57.591Z,1.52
2022-08-03T17:42:31.321Z,1.20
2022-08-03T17:45:02.247Z,1.20
2022-08-03T17:47:41.973Z,1.20
2022-08-03T17:50:24.518Z,1.40
2022-08-03T17:52:58.420Z,1.30
2022-08-03T17:55:55.732Z,1.20
2022-08-03T17:58:24.033Z,1.40
2022-08-03T18:01:58.335Z,1.33
2022-08-03T18:04:03.780Z,1.35
2022-08-03T18:06:38.810Z,1.50
2022-08-03T18:10:04.851Z,1.30
2022-08-03T18:12:16.595Z,1.35
2022-08-03T18:17:55.669Z,1.45
2022-08-03T18:20:34.012Z,1.38
2022-08-03T18:23:04.723Z,1.30
2022-08-03T18:25:42.724Z,1.50
2022-08-03T18:28:18.726Z,1.00
2022-08-03T18:30:54.175Z,1.60
2022-08-03T18:34:16.561Z,1.50
2022-08-03T18:36:17.729Z,1.42
2022-08-03T18:38:46.697Z,1.52
2022-08-03T18:41:15.839Z,1.20
2022-08-03T18:44:06.976Z,1.30
2022-08-03T18:46:50.251Z,1.23
2022-08-03T18:49:36.293Z,1.30
2022-08-03T18:52:12.279Z,1.25
2022-08-03T18:55:08.440Z,1.42
2022-08-03T18:57:50.375Z,1.38
2022-08-03T19:00:24.334Z,1.60
2022-08-03T19:03:10.004Z,1.30
2022-08-03T19:05:57.817Z,1.67
2022-08-03T19:08:45.883Z,1.40
2022-08-03T19:11:28.113Z,1.60
2022-08-03T19:13:56.609Z,1.60
2022-08-03T19:16:39.364Z,1.63
2022-08-03T19:19:14.437Z,1.42
2022-08-03T19:21:41.469Z,1.50
2022-08-03T19:24:10.068Z,1.70
2022-08-03T19:26:39.401Z,1.60
2022-08-03T19:29:07.479Z,1.67
2022-08-03T19:31:42.001Z,1.77
2022-08-03T19:34:26.784Z,1.65
2022-08-03T19:36:55.363Z,1.38
2022-08-03T19:39:24.028Z,1.90
2022-08-03T19:41:55.473Z,1.63
2022-08-03T19:44:29.767Z,1.83
2022-08-03T19:47:16.935Z,2.40
2022-08-03T19:50:05.145Z,1.77
2022-08-03T19:52:35.483Z,1.88
2022-08-03T19:55:12.144Z,1.77
2022-08-03T19:57:42.217Z,1.75
2022-08-03T20:00:11.886Z,1.83
2022-08-03T20:02:39.796Z,1.80
2022-08-03T20:05:11.992Z,1.55
2022-08-03T20:07:42.530Z,1.80
2022-08-03T20:10:15.290Z,1.80
2022-08-03T20:12:44.626Z,1.90
2022-08-03T20:15:11.550Z,2.00
2022-08-03T20:17:56.771Z,2.22
2022-08-03T20:20:31.404Z,2.00
2022-08-03T20:23:06.881Z,2.17
2022-08-03T20:25:48.847Z,2.00
2022-08-03T20:28:35.016Z,1.92
2022-08-03T20:31:16.567Z,2.40
2022-08-03T20:33:48.832Z,2.10
2022-08-03T20:36:17.800Z,2.47
2022-08-03T20:38:47.215Z,2.63
2022-08-03T20:41:14.533Z,2.40
2022-08-03T20:43:41.471Z,2.30
2022-08-03T20:46:34.321Z,2.30
2022-08-03T20:48:57.291Z,2.33
2022-08-03T20:51:52.657Z,2.50
2022-08-03T20:54:22.829Z,2.85
2022-08-03T20:56:57.653Z,2.80
2022-08-03T20:59:28.713Z,3.40
2022-08-03T21:01:56.965Z,3.22
2022-08-03T21:04:23.905Z,3.10
2022-08-03T21:06:57.674Z,2.78
2022-08-03T21:09:40.134Z,2.65
2022-08-03T21:12:15.289Z,2.63
2022-08-03T21:12:57.248Z,1.45
2022-08-03T21:14:56.565Z,2.63
2022-08-03T21:17:40.036Z,2.85
2022-08-03T21:20:09.753Z,2.58
2022-08-03T21:22:38.293Z,2.67
2022-08-03T21:25:09.053Z,3.20
2022-08-03T21:27:37.018Z,3.08
2022-08-03T21:30:07.663Z,2.67
2022-08-03T21:32:34.161Z,2.78
2022-08-03T21:35:01.185Z,2.88
2022-08-03T21:37:28.985Z,3.42
2022-08-03T21:39:56.469Z,3.05
2022-08-03T21:42:23.993Z,3.67
2022-08-03T21:44:54.191Z,3.00
2022-08-03T21:47:22.175Z,2.85
2022-08-03T21:50:06.895Z,3.17
2022-08-03T21:52:41.966Z,3.08
2022-08-03T21:55:08.793Z,2.47
2022-08-03T21:57:51.217Z,2.60
2022-08-03T22:00:20.181Z,2.70
2022-08-03T22:02:56.190Z,2.83
2022-08-03T22:05:42.353Z,2.85
2022-08-03T22:08:10.679Z,2.78
2022-08-03T22:10:37.217Z,2.95
2022-08-03T22:13:03.738Z,2.90
2022-08-03T22:15:30.580Z,2.70
2022-08-03T22:17:58.796Z,2.88
2022-08-03T22:20:25.714Z,3.13
2022-08-03T22:22:55.763Z,3.08
2022-08-03T22:25:28.434Z,2.90
2022-08-03T22:27:55.255Z,2.83
2022-08-03T22:30:21.713Z,3.00
2022-08-03T22:32:51.251Z,3.15
2022-08-03T22:35:20.133Z,3.30
2022-08-03T22:37:49.406Z,2.70
2022-08-03T22:40:16.819Z,3.28
2022-08-03T22:42:49.253Z,2.90
2022-08-03T22:46:06.445Z,3.30
2022-08-03T22:48:08.187Z,2.95
2022-08-03T22:50:34.871Z,2.70
2022-08-03T22:53:01.547Z,2.72
2022-08-03T22:55:28.249Z,2.95
2022-08-03T22:57:56.213Z,2.80
2022-08-03T23:00:23.381Z,2.83
2022-08-03T23:02:51.721Z,2.65
2022-08-03T23:06:00.547Z,2.88
2022-08-03T23:08:15.092Z,2.50
2022-08-03T23:10:47.083Z,2.83
2022-08-03T23:13:17.233Z,2.55
2022-08-03T23:15:50.638Z,2.80
2022-08-03T23:18:19.896Z,3.17
2022-08-03T23:20:51.382Z,3.00
2022-08-03T23:23:19.914Z,3.38
2022-08-03T23:25:49.573Z,2.88
2022-08-03T23:28:16.331Z,2.97
2022-08-03T23:30:44.528Z,3.28
2022-08-03T23:33:15.875Z,2.90
2022-08-03T23:36:28.962Z,2.78
2022-08-03T23:38:45.840Z,2.90
2022-08-03T23:41:13.378Z,3.22
2022-08-03T23:43:51.326Z,3.03
2022-08-03T23:46:22.119Z,3.20
2022-08-03T23:48:48.553Z,3.25
2022-08-03T23:52:02.645Z,3.00
2022-08-03T23:55:04.223Z,2.72
2022-08-03T23:58:04.144Z,3.58
